Huvudsida
METAR-TAF:

METAR-TAF

Flygplatser :

Oslo flygplats. Gardermoen

Oslo, Norge

latitud: 60-12N, longitud: 011-05E, höjd: 208 m

Aktuellt väderrapport

Denna rapport gjordes för 24 minuter sedan, klockan 07:50 UTC
Vind 3 kt från ost, varierande mellan nord/nordost och sydost
Temperatur 21°C
Fuktighet 43%
Tryck 1031 hPa
Sikt 10 km eller mer
Inga moln under 1 500 m eller inga cumulonimbus

METAR: ENGM 270750Z 09003KT 020V140 CAVOK 21/08 Q1031 NOSIG

Tid: 10:14 (08:14 UTC)

Väderprognos

Prognos gäller från 27 kl. 06 UTC till 28 kl. 06 UTC
Vind 5 kt från nordost
Sikt 10 km eller mer
Inga moln under 1 500 m eller inga cumulonimbus
Temporärt
från 27 kl. 12 UTC till 27 kl. 18 UTC
Vind 10 kt från ost/sydost

TAF: ENGM 2706/2806 04005KT CAVOK TEMPO 2712/2718 11010KT

Aktuella väderrapporter och prognoser från 4000 flygplatser (METAR- och TAF-rapporter).

De tillgängliga stationerna syns som gula och röda prickar på kartan.

För musen över prickarna för att se namnen på stationerna.

Klicka sedan för att få väderrapporter och prognoser.

För att ändra kartan: Klicka på de gröna knapparna med ett svart kors på för att zooma in; den gröna knappen med ett streck på för att zooma ut; eller på de gröna pilarna för angränsande kartor.


METAR-TAF: